sensor_id;sensor_type;location;lat;lon;timestamp;P1;durP1;ratioP1;P2;durP2;ratioP2
62911;SDS011;49111;51.028;4.218;2024-01-25T00:02:18;25.75;;;7.18;;
62911;SDS011;49111;51.028;4.218;2024-01-25T00:04:44;27.35;;;7.32;;
62911;SDS011;49111;51.028;4.218;2024-01-25T00:07:10;22.85;;;6.80;;
62911;SDS011;49111;51.028;4.218;2024-01-25T00:09:36;32.10;;;8.45;;
62911;SDS011;49111;51.028;4.218;2024-01-25T00:12:02;31.42;;;8.52;;
62911;SDS011;49111;51.028;4.218;2024-01-25T00:14:28;32.75;;;8.35;;
62911;SDS011;49111;51.028;4.218;2024-01-25T00:16:53;22.38;;;6.20;;
62911;SDS011;49111;51.028;4.218;2024-01-25T00:19:19;25.23;;;6.72;;
62911;SDS011;49111;51.028;4.218;2024-01-25T00:21:45;26.20;;;7.13;;
62911;SDS011;49111;51.028;4.218;2024-01-25T00:24:11;25.98;;;7.80;;
62911;SDS011;49111;51.028;4.218;2024-01-25T00:26:38;39.85;;;8.43;;
62911;SDS011;49111;51.028;4.218;2024-01-25T00:29:04;33.88;;;8.13;;
62911;SDS011;49111;51.028;4.218;2024-01-25T00:31:30;26.90;;;6.43;;
62911;SDS011;49111;51.028;4.218;2024-01-25T00:33:57;28.23;;;7.55;;
62911;SDS011;49111;51.028;4.218;2024-01-25T00:36:23;27.08;;;6.75;;
62911;SDS011;49111;51.028;4.218;2024-01-25T00:38:50;37.30;;;8.05;;
62911;SDS011;49111;51.028;4.218;2024-01-25T00:41:17;37.60;;;7.85;;
62911;SDS011;49111;51.028;4.218;2024-01-25T00:43:44;27.05;;;7.53;;
62911;SDS011;49111;51.028;4.218;2024-01-25T00:46:11;27.30;;;7.82;;
62911;SDS011;49111;51.028;4.218;2024-01-25T00:48:37;26.95;;;7.47;;
62911;SDS011;49111;51.028;4.218;2024-01-25T00:51:06;31.27;;;6.57;;
62911;SDS011;49111;51.028;4.218;2024-01-25T00:53:33;23.70;;;8.32;;
62911;SDS011;49111;51.028;4.218;2024-01-25T00:55:59;29.75;;;8.32;;
62911;SDS011;49111;51.028;4.218;2024-01-25T00:58:25;39.67;;;9.27;;
62911;SDS011;49111;51.028;4.218;2024-01-25T01:00:52;38.00;;;10.02;;
62911;SDS011;49111;51.028;4.218;2024-01-25T01:03:18;32.92;;;8.23;;
62911;SDS011;49111;51.028;4.218;2024-01-25T01:05:45;31.63;;;6.82;;
62911;SDS011;49111;51.028;4.218;2024-01-25T01:08:11;29.33;;;7.57;;
62911;SDS011;49111;51.028;4.218;2024-01-25T01:10:37;25.65;;;8.13;;
62911;SDS011;49111;51.028;4.218;2024-01-25T01:13:03;24.80;;;8.25;;
62911;SDS011;49111;51.028;4.218;2024-01-25T01:15:29;28.38;;;8.10;;
62911;SDS011;49111;51.028;4.218;2024-01-25T01:17:55;23.45;;;7.15;;
62911;SDS011;49111;51.028;4.218;2024-01-25T01:20:21;24.17;;;7.72;;
62911;SDS011;49111;51.028;4.218;2024-01-25T01:22:47;28.40;;;8.48;;
62911;SDS011;49111;51.028;4.218;2024-01-25T01:25:12;33.42;;;8.85;;
62911;SDS011;49111;51.028;4.218;2024-01-25T01:27:38;26.38;;;9.27;;
62911;SDS011;49111;51.028;4.218;2024-01-25T01:30:04;27.35;;;8.63;;
62911;SDS011;49111;51.028;4.218;2024-01-25T01:32:33;27.23;;;6.97;;
62911;SDS011;49111;51.028;4.218;2024-01-25T01:34:59;29.35;;;7.78;;
62911;SDS011;49111;51.028;4.218;2024-01-25T01:37:25;31.83;;;10.02;;
62911;SDS011;49111;51.028;4.218;2024-01-25T01:39:51;34.00;;;8.18;;
62911;SDS011;49111;51.028;4.218;2024-01-25T01:42:17;24.70;;;7.10;;
62911;SDS011;49111;51.028;4.218;2024-01-25T01:44:43;25.50;;;7.15;;
62911;SDS011;49111;51.028;4.218;2024-01-25T01:47:09;35.55;;;9.00;;
62911;SDS011;49111;51.028;4.218;2024-01-25T01:49:35;26.85;;;8.13;;
62911;SDS011;49111;51.028;4.218;2024-01-25T01:52:01;28.75;;;7.78;;
62911;SDS011;49111;51.028;4.218;2024-01-25T01:54:28;16.83;;;5.75;;
62911;SDS011;49111;51.028;4.218;2024-01-25T01:56:54;29.98;;;7.93;;
62911;SDS011;49111;51.028;4.218;2024-01-25T01:59:20;20.60;;;6.85;;
62911;SDS011;49111;51.028;4.218;2024-01-25T02:01:46;17.27;;;5.75;;
62911;SDS011;49111;51.028;4.218;2024-01-25T02:04:12;21.23;;;7.18;;
62911;SDS011;49111;51.028;4.218;2024-01-25T02:06:38;21.50;;;6.45;;
62911;SDS011;49111;51.028;4.218;2024-01-25T02:09:04;24.40;;;7.53;;
62911;SDS011;49111;51.028;4.218;2024-01-25T02:11:30;20.15;;;5.63;;
62911;SDS011;49111;51.028;4.218;2024-01-25T02:13:56;19.15;;;5.25;;
62911;SDS011;49111;51.028;4.218;2024-01-25T02:16:22;21.08;;;7.78;;
62911;SDS011;49111;51.028;4.218;2024-01-25T02:18:48;22.88;;;6.60;;
62911;SDS011;49111;51.028;4.218;2024-01-25T02:21:14;16.88;;;5.22;;
62911;SDS011;49111;51.028;4.218;2024-01-25T02:23:40;18.65;;;7.57;;
62911;SDS011;49111;51.028;4.218;2024-01-25T02:26:06;24.75;;;5.85;;
62911;SDS011;49111;51.028;4.218;2024-01-25T02:28:32;28.70;;;6.45;;
62911;SDS011;49111;51.028;4.218;2024-01-25T02:30:59;29.35;;;7.30;;
62911;SDS011;49111;51.028;4.218;2024-01-25T02:33:26;26.83;;;6.18;;
62911;SDS011;49111;51.028;4.218;2024-01-25T02:35:52;21.05;;;6.03;;
62911;SDS011;49111;51.028;4.218;2024-01-25T02:38:18;35.67;;;6.75;;
62911;SDS011;49111;51.028;4.218;2024-01-25T02:40:44;26.98;;;7.72;;
62911;SDS011;49111;51.028;4.218;2024-01-25T02:43:10;21.48;;;6.40;;
62911;SDS011;49111;51.028;4.218;2024-01-25T02:45:35;19.67;;;5.55;;
62911;SDS011;49111;51.028;4.218;2024-01-25T02:48:02;25.98;;;6.55;;
62911;SDS011;49111;51.028;4.218;2024-01-25T02:50:29;18.23;;;6.50;;
62911;SDS011;49111;51.028;4.218;2024-01-25T02:52:55;18.80;;;5.93;;
62911;SDS011;49111;51.028;4.218;2024-01-25T02:55:22;19.80;;;5.65;;
62911;SDS011;49111;51.028;4.218;2024-01-25T02:57:48;25.38;;;6.25;;
62911;SDS011;49111;51.028;4.218;2024-01-25T03:00:14;24.10;;;6.55;;
62911;SDS011;49111;51.028;4.218;2024-01-25T03:02:40;24.67;;;6.13;;
62911;SDS011;49111;51.028;4.218;2024-01-25T03:05:06;21.17;;;5.57;;
62911;SDS011;49111;51.028;4.218;2024-01-25T03:07:32;21.50;;;6.07;;
62911;SDS011;49111;51.028;4.218;2024-01-25T03:09:58;24.95;;;6.15;;
62911;SDS011;49111;51.028;4.218;2024-01-25T03:12:24;17.33;;;5.05;;
62911;SDS011;49111;51.028;4.218;2024-01-25T03:14:50;19.33;;;5.40;;
62911;SDS011;49111;51.028;4.218;2024-01-25T03:17:16;29.23;;;5.50;;
62911;SDS011;49111;51.028;4.218;2024-01-25T03:19:42;23.55;;;6.95;;
62911;SDS011;49111;51.028;4.218;2024-01-25T03:22:08;20.73;;;6.22;;
62911;SDS011;49111;51.028;4.218;2024-01-25T03:24:37;24.58;;;5.97;;
62911;SDS011;49111;51.028;4.218;2024-01-25T03:27:04;20.52;;;5.32;;
62911;SDS011;49111;51.028;4.218;2024-01-25T03:29:31;16.52;;;4.20;;
62911;SDS011;49111;51.028;4.218;2024-01-25T03:31:57;27.48;;;5.70;;
62911;SDS011;49111;51.028;4.218;2024-01-25T03:34:23;23.92;;;6.53;;
62911;SDS011;49111;51.028;4.218;2024-01-25T03:36:48;13.68;;;6.03;;
62911;SDS011;49111;51.028;4.218;2024-01-25T03:39:17;22.58;;;6.00;;
62911;SDS011;49111;51.028;4.218;2024-01-25T03:41:44;23.80;;;7.55;;
62911;SDS011;49111;51.028;4.218;2024-01-25T03:44:10;26.20;;;7.30;;
62911;SDS011;49111;51.028;4.218;2024-01-25T03:46:36;18.80;;;5.53;;
62911;SDS011;49111;51.028;4.218;2024-01-25T03:49:02;21.42;;;5.63;;
62911;SDS011;49111;51.028;4.218;2024-01-25T03:51:29;27.98;;;5.60;;
62911;SDS011;49111;51.028;4.218;2024-01-25T03:53:55;24.27;;;6.47;;
62911;SDS011;49111;51.028;4.218;2024-01-25T03:56:23;29.50;;;6.50;;
62911;SDS011;49111;51.028;4.218;2024-01-25T03:58:49;17.60;;;6.20;;
62911;SDS011;49111;51.028;4.218;2024-01-25T04:01:15;25.83;;;7.05;;
62911;SDS011;49111;51.028;4.218;2024-01-25T04:03:41;24.70;;;7.15;;
62911;SDS011;49111;51.028;4.218;2024-01-25T04:06:07;29.42;;;8.13;;
62911;SDS011;49111;51.028;4.218;2024-01-25T04:08:33;30.65;;;8.25;;
62911;SDS011;49111;51.028;4.218;2024-01-25T04:10:59;33.70;;;8.38;;
62911;SDS011;49111;51.028;4.218;2024-01-25T04:13:25;26.77;;;7.13;;
62911;SDS011;49111;51.028;4.218;2024-01-25T04:15:51;26.27;;;7.55;;
62911;SDS011;49111;51.028;4.218;2024-01-25T04:18:17;22.30;;;7.72;;
62911;SDS011;49111;51.028;4.218;2024-01-25T04:20:43;23.02;;;7.22;;
62911;SDS011;49111;51.028;4.218;2024-01-25T04:23:09;15.73;;;5.60;;
62911;SDS011;49111;51.028;4.218;2024-01-25T04:25:35;25.95;;;7.43;;
62911;SDS011;49111;51.028;4.218;2024-01-25T04:28:01;26.15;;;7.28;;
62911;SDS011;49111;51.028;4.218;2024-01-25T04:30:27;21.13;;;7.15;;
62911;SDS011;49111;51.028;4.218;2024-01-25T04:32:53;28.30;;;6.22;;
62911;SDS011;49111;51.028;4.218;2024-01-25T04:35:19;24.90;;;6.70;;
62911;SDS011;49111;51.028;4.218;2024-01-25T04:37:45;19.45;;;5.55;;
62911;SDS011;49111;51.028;4.218;2024-01-25T04:40:11;20.88;;;6.80;;
62911;SDS011;49111;51.028;4.218;2024-01-25T04:42:37;18.50;;;6.40;;
62911;SDS011;49111;51.028;4.218;2024-01-25T04:45:03;27.88;;;7.18;;
62911;SDS011;49111;51.028;4.218;2024-01-25T04:47:29;35.55;;;9.13;;
62911;SDS011;49111;51.028;4.218;2024-01-25T04:49:56;26.65;;;7.95;;
62911;SDS011;49111;51.028;4.218;2024-01-25T04:52:22;25.42;;;6.68;;
62911;SDS011;49111;51.028;4.218;2024-01-25T04:54:47;18.65;;;5.90;;
62911;SDS011;49111;51.028;4.218;2024-01-25T04:57:13;23.20;;;6.07;;
62911;SDS011;49111;51.028;4.218;2024-01-25T04:59:39;28.48;;;7.28;;
62911;SDS011;49111;51.028;4.218;2024-01-25T05:02:05;16.70;;;6.35;;
62911;SDS011;49111;51.028;4.218;2024-01-25T05:04:31;20.65;;;6.35;;
62911;SDS011;49111;51.028;4.218;2024-01-25T05:06:56;27.95;;;8.00;;
62911;SDS011;49111;51.028;4.218;2024-01-25T05:09:22;35.50;;;10.35;;
62911;SDS011;49111;51.028;4.218;2024-01-25T05:11:49;25.75;;;8.85;;
62911;SDS011;49111;51.028;4.218;2024-01-25T05:14:15;21.85;;;7.68;;
62911;SDS011;49111;51.028;4.218;2024-01-25T05:16:41;36.05;;;9.40;;
62911;SDS011;49111;51.028;4.218;2024-01-25T05:19:08;28.08;;;7.28;;
62911;SDS011;49111;51.028;4.218;2024-01-25T05:21:34;28.00;;;6.82;;
62911;SDS011;49111;51.028;4.218;2024-01-25T05:24:00;23.95;;;6.63;;
62911;SDS011;49111;51.028;4.218;2024-01-25T05:26:25;23.23;;;7.32;;
62911;SDS011;49111;51.028;4.218;2024-01-25T05:28:51;21.73;;;7.57;;
62911;SDS011;49111;51.028;4.218;2024-01-25T05:31:17;23.08;;;7.47;;
62911;SDS011;49111;51.028;4.218;2024-01-25T05:33:43;26.63;;;8.00;;
62911;SDS011;49111;51.028;4.218;2024-01-25T05:36:09;31.85;;;7.72;;
62911;SDS011;49111;51.028;4.218;2024-01-25T05:38:35;30.67;;;7.90;;
62911;SDS011;49111;51.028;4.218;2024-01-25T05:41:01;26.27;;;7.93;;
62911;SDS011;49111;51.028;4.218;2024-01-25T05:43:26;23.90;;;7.55;;
62911;SDS011;49111;51.028;4.218;2024-01-25T05:45:52;25.73;;;6.78;;
62911;SDS011;49111;51.028;4.218;2024-01-25T05:48:18;21.67;;;7.18;;
62911;SDS011;49111;51.028;4.218;2024-01-25T05:50:45;26.58;;;6.53;;
62911;SDS011;49111;51.028;4.218;2024-01-25T05:53:11;32.65;;;7.18;;
62911;SDS011;49111;51.028;4.218;2024-01-25T05:55:36;23.30;;;6.63;;
62911;SDS011;49111;51.028;4.218;2024-01-25T05:58:02;26.67;;;7.90;;
62911;SDS011;49111;51.028;4.218;2024-01-25T06:00:28;27.48;;;7.78;;
62911;SDS011;49111;51.028;4.218;2024-01-25T06:02:54;22.48;;;7.03;;
62911;SDS011;49111;51.028;4.218;2024-01-25T06:05:21;22.30;;;6.95;;
62911;SDS011;49111;51.028;4.218;2024-01-25T06:07:47;16.17;;;5.78;;
62911;SDS011;49111;51.028;4.218;2024-01-25T06:10:15;18.92;;;6.00;;
62911;SDS011;49111;51.028;4.218;2024-01-25T06:12:40;22.65;;;6.63;;
62911;SDS011;49111;51.028;4.218;2024-01-25T06:15:06;28.63;;;7.28;;
62911;SDS011;49111;51.028;4.218;2024-01-25T06:17:33;31.08;;;7.43;;
62911;SDS011;49111;51.028;4.218;2024-01-25T06:19:58;23.65;;;8.60;;
62911;SDS011;49111;51.028;4.218;2024-01-25T06:22:24;26.55;;;6.75;;
62911;SDS011;49111;51.028;4.218;2024-01-25T06:24:50;25.23;;;7.85;;
62911;SDS011;49111;51.028;4.218;2024-01-25T06:27:16;20.65;;;5.28;;
62911;SDS011;49111;51.028;4.218;2024-01-25T06:29:42;23.25;;;7.38;;
62911;SDS011;49111;51.028;4.218;2024-01-25T06:32:08;17.02;;;6.13;;
62911;SDS011;49111;51.028;4.218;2024-01-25T06:34:35;23.67;;;7.72;;
62911;SDS011;49111;51.028;4.218;2024-01-25T06:37:01;22.13;;;6.90;;
62911;SDS011;49111;51.028;4.218;2024-01-25T06:39:27;22.85;;;6.45;;
62911;SDS011;49111;51.028;4.218;2024-01-25T06:41:52;18.10;;;5.93;;
62911;SDS011;49111;51.028;4.218;2024-01-25T06:44:18;18.83;;;6.20;;
62911;SDS011;49111;51.028;4.218;2024-01-25T06:46:44;17.00;;;5.47;;
62911;SDS011;49111;51.028;4.218;2024-01-25T06:49:11;19.98;;;5.50;;
62911;SDS011;49111;51.028;4.218;2024-01-25T06:51:37;23.50;;;7.72;;
62911;SDS011;49111;51.028;4.218;2024-01-25T06:54:03;24.17;;;6.80;;
62911;SDS011;49111;51.028;4.218;2024-01-25T06:56:28;23.35;;;6.57;;
62911;SDS011;49111;51.028;4.218;2024-01-25T06:58:54;35.13;;;7.03;;
62911;SDS011;49111;51.028;4.218;2024-01-25T07:01:23;31.58;;;6.72;;
62911;SDS011;49111;51.028;4.218;2024-01-25T07:03:55;32.13;;;6.53;;
62911;SDS011;49111;51.028;4.218;2024-01-25T07:06:21;19.65;;;6.00;;
62911;SDS011;49111;51.028;4.218;2024-01-25T07:08:47;14.63;;;4.80;;
62911;SDS011;49111;51.028;4.218;2024-01-25T07:11:12;27.45;;;9.30;;
62911;SDS011;49111;51.028;4.218;2024-01-25T07:13:40;24.33;;;6.75;;
62911;SDS011;49111;51.028;4.218;2024-01-25T07:16:06;20.10;;;7.03;;
62911;SDS011;49111;51.028;4.218;2024-01-25T07:18:32;22.15;;;6.57;;
62911;SDS011;49111;51.028;4.218;2024-01-25T07:20:58;17.75;;;6.22;;
62911;SDS011;49111;51.028;4.218;2024-01-25T07:23:23;22.65;;;7.05;;
62911;SDS011;49111;51.028;4.218;2024-01-25T07:25:52;25.60;;;9.65;;
62911;SDS011;49111;51.028;4.218;2024-01-25T07:28:21;21.98;;;9.13;;
62911;SDS011;49111;51.028;4.218;2024-01-25T07:30:47;30.73;;;8.25;;
62911;SDS011;49111;51.028;4.218;2024-01-25T07:33:13;29.80;;;8.52;;
62911;SDS011;49111;51.028;4.218;2024-01-25T07:35:39;19.70;;;6.75;;
62911;SDS011;49111;51.028;4.218;2024-01-25T07:38:11;21.45;;;6.95;;
62911;SDS011;49111;51.028;4.218;2024-01-25T07:40:37;21.65;;;8.52;;
62911;SDS011;49111;51.028;4.218;2024-01-25T07:43:03;22.05;;;7.68;;
62911;SDS011;49111;51.028;4.218;2024-01-25T07:45:29;22.13;;;7.90;;
62911;SDS011;49111;51.028;4.218;2024-01-25T07:47:56;19.17;;;6.38;;
62911;SDS011;49111;51.028;4.218;2024-01-25T07:50:22;20.08;;;6.93;;
62911;SDS011;49111;51.028;4.218;2024-01-25T07:52:49;26.63;;;7.95;;
62911;SDS011;49111;51.028;4.218;2024-01-25T07:55:15;25.88;;;9.52;;
62911;SDS011;49111;51.028;4.218;2024-01-25T07:57:41;23.73;;;8.38;;
62911;SDS011;49111;51.028;4.218;2024-01-25T08:00:08;22.60;;;7.82;;
62911;SDS011;49111;51.028;4.218;2024-01-25T08:02:35;29.25;;;9.27;;
62911;SDS011;49111;51.028;4.218;2024-01-25T08:05:01;24.42;;;9.13;;
62911;SDS011;49111;51.028;4.218;2024-01-25T08:07:28;30.20;;;9.52;;
62911;SDS011;49111;51.028;4.218;2024-01-25T08:09:54;25.85;;;8.82;;
62911;SDS011;49111;51.028;4.218;2024-01-25T08:12:23;40.38;;;9.95;;
62911;SDS011;49111;51.028;4.218;2024-01-25T08:14:50;27.90;;;8.75;;
62911;SDS011;49111;51.028;4.218;2024-01-25T08:17:16;39.00;;;8.25;;
62911;SDS011;49111;51.028;4.218;2024-01-25T08:19:43;46.47;;;7.38;;
62911;SDS011;49111;51.028;4.218;2024-01-25T08:22:10;34.13;;;8.45;;
62911;SDS011;49111;51.028;4.218;2024-01-25T08:24:36;27.65;;;8.40;;
62911;SDS011;49111;51.028;4.218;2024-01-25T08:27:01;34.13;;;7.78;;
62911;SDS011;49111;51.028;4.218;2024-01-25T08:29:28;28.52;;;6.85;;
62911;SDS011;49111;51.028;4.218;2024-01-25T08:31:54;19.73;;;7.88;;
62911;SDS011;49111;51.028;4.218;2024-01-25T08:34:20;41.70;;;8.13;;
62911;SDS011;49111;51.028;4.218;2024-01-25T08:36:46;22.10;;;7.18;;
62911;SDS011;49111;51.028;4.218;2024-01-25T08:39:12;28.33;;;8.20;;
62911;SDS011;49111;51.028;4.218;2024-01-25T08:41:39;21.88;;;6.45;;
62911;SDS011;49111;51.028;4.218;2024-01-25T08:44:07;21.42;;;6.82;;
62911;SDS011;49111;51.028;4.218;2024-01-25T08:46:33;16.65;;;6.30;;
62911;SDS011;49111;51.028;4.218;2024-01-25T08:52:03;14.57;;;6.55;;
62911;SDS011;49111;51.028;4.218;2024-01-25T08:54:55;15.85;;;5.75;;
62911;SDS011;49111;51.028;4.218;2024-01-25T08:57:33;15.38;;;7.07;;
62911;SDS011;49111;51.028;4.218;2024-01-25T09:03:05;25.55;;;7.35;;
62911;SDS011;49111;51.028;4.218;2024-01-25T09:05:40;13.63;;;6.68;;
62911;SDS011;49111;51.028;4.218;2024-01-25T09:08:31;11.85;;;6.93;;
62911;SDS011;49111;51.028;4.218;2024-01-25T09:11:05;20.60;;;6.93;;
62911;SDS011;49111;51.028;4.218;2024-01-25T09:20:27;19.02;;;7.30;;
62911;SDS011;49111;51.028;4.218;2024-01-25T09:26:14;20.65;;;7.20;;
62911;SDS011;49111;51.028;4.218;2024-01-25T09:28:45;20.35;;;6.68;;
62911;SDS011;49111;51.028;4.218;2024-01-25T09:34:05;18.27;;;8.00;;
62911;SDS011;49111;51.028;4.218;2024-01-25T09:39:41;23.38;;;7.60;;
62911;SDS011;49111;51.028;4.218;2024-01-25T09:49:02;18.15;;;7.03;;
62911;SDS011;49111;51.028;4.218;2024-01-25T09:51:36;21.27;;;8.23;;
62911;SDS011;49111;51.028;4.218;2024-01-25T10:03:00;23.95;;;8.15;;
62911;SDS011;49111;51.028;4.218;2024-01-25T10:05:54;26.63;;;8.80;;
62911;SDS011;49111;51.028;4.218;2024-01-25T10:08:30;23.88;;;7.90;;
62911;SDS011;49111;51.028;4.218;2024-01-25T10:11:03;17.95;;;8.25;;
62911;SDS011;49111;51.028;4.218;2024-01-25T10:20:04;24.70;;;10.68;;
62911;SDS011;49111;51.028;4.218;2024-01-25T11:39:01;27.30;;;8.77;;
62911;SDS011;49111;51.028;4.218;2024-01-25T11:41:31;28.10;;;10.70;;
62911;SDS011;49111;51.028;4.218;2024-01-25T11:44:15;31.95;;;9.55;;
62911;SDS011;49111;51.028;4.218;2024-01-25T11:52:08;28.50;;;10.57;;
62911;SDS011;49111;51.028;4.218;2024-01-25T11:54:47;23.42;;;9.75;;
62911;SDS011;49111;51.028;4.218;2024-01-25T11:57:13;33.65;;;10.35;;
62911;SDS011;49111;51.028;4.218;2024-01-25T12:02:58;27.83;;;10.32;;
62911;SDS011;49111;51.028;4.218;2024-01-25T12:05:26;25.10;;;9.73;;
62911;SDS011;49111;51.028;4.218;2024-01-25T12:10:39;22.27;;;9.52;;
62911;SDS011;49111;51.028;4.218;2024-01-25T12:16:02;22.92;;;9.20;;
62911;SDS011;49111;51.028;4.218;2024-01-25T12:21:13;22.55;;;8.18;;
62911;SDS011;49111;51.028;4.218;2024-01-25T12:23:41;18.77;;;7.95;;
62911;SDS011;49111;51.028;4.218;2024-01-25T12:26:10;21.90;;;8.75;;
62911;SDS011;49111;51.028;4.218;2024-01-25T12:28:37;17.63;;;8.60;;
62911;SDS011;49111;51.028;4.218;2024-01-25T12:31:03;24.77;;;8.40;;
62911;SDS011;49111;51.028;4.218;2024-01-25T12:39:17;21.05;;;8.07;;
62911;SDS011;49111;51.028;4.218;2024-01-25T12:42:02;20.52;;;8.55;;
62911;SDS011;49111;51.028;4.218;2024-01-25T12:44:35;19.27;;;7.03;;
62911;SDS011;49111;51.028;4.218;2024-01-25T12:49:47;17.98;;;6.97;;
62911;SDS011;49111;51.028;4.218;2024-01-25T12:57:52;22.25;;;8.20;;
62911;SDS011;49111;51.028;4.218;2024-01-25T13:06:05;13.32;;;6.70;;
62911;SDS011;49111;51.028;4.218;2024-01-25T13:11:22;14.68;;;6.20;;
62911;SDS011;49111;51.028;4.218;2024-01-25T13:14:01;12.48;;;5.57;;
62911;SDS011;49111;51.028;4.218;2024-01-25T13:19:16;9.02;;;5.30;;
62911;SDS011;49111;51.028;4.218;2024-01-25T13:24:51;11.50;;;5.35;;
62911;SDS011;49111;51.028;4.218;2024-01-25T13:27:24;8.88;;;4.50;;
62911;SDS011;49111;51.028;4.218;2024-01-25T13:35:37;7.65;;;4.03;;
62911;SDS011;49111;51.028;4.218;2024-01-25T13:38:17;9.65;;;4.30;;
62911;SDS011;49111;51.028;4.218;2024-01-25T13:44:28;11.93;;;4.70;;
62911;SDS011;49111;51.028;4.218;2024-01-25T13:55:39;8.57;;;5.22;;
62911;SDS011;49111;51.028;4.218;2024-01-25T13:58:18;9.48;;;5.18;;
62911;SDS011;49111;51.028;4.218;2024-01-25T14:00:58;12.93;;;5.65;;
62911;SDS011;49111;51.028;4.218;2024-01-25T14:03:28;13.18;;;6.20;;
62911;SDS011;49111;51.028;4.218;2024-01-25T14:08:47;12.00;;;6.88;;
62911;SDS011;49111;51.028;4.218;2024-01-25T14:11:20;9.50;;;6.10;;
62911;SDS011;49111;51.028;4.218;2024-01-25T14:16:58;13.68;;;7.03;;
62911;SDS011;49111;51.028;4.218;2024-01-25T14:21:56;11.90;;;7.00;;
62911;SDS011;49111;51.028;4.218;2024-01-25T14:33:25;12.75;;;7.40;;
62911;SDS011;49111;51.028;4.218;2024-01-25T14:38:58;13.98;;;8.65;;
62911;SDS011;49111;51.028;4.218;2024-01-25T14:41:27;13.85;;;8.15;;
62911;SDS011;49111;51.028;4.218;2024-01-25T14:43:53;14.45;;;9.32;;
62911;SDS011;49111;51.028;4.218;2024-01-25T14:46:33;14.73;;;8.65;;
62911;SDS011;49111;51.028;4.218;2024-01-25T14:49:08;23.23;;;10.38;;
62911;SDS011;49111;51.028;4.218;2024-01-25T14:54:17;19.48;;;8.95;;
62911;SDS011;49111;51.028;4.218;2024-01-25T14:56:54;18.00;;;9.70;;
62911;SDS011;49111;51.028;4.218;2024-01-25T14:59:28;18.38;;;10.25;;
62911;SDS011;49111;51.028;4.218;2024-01-25T15:01:58;19.70;;;10.95;;
62911;SDS011;49111;51.028;4.218;2024-01-25T15:04:37;19.85;;;11.50;;
62911;SDS011;49111;51.028;4.218;2024-01-25T15:09:38;26.75;;;13.18;;
62911;SDS011;49111;51.028;4.218;2024-01-25T15:21:21;37.67;;;18.63;;
62911;SDS011;49111;51.028;4.218;2024-01-25T15:23:48;23.60;;;12.30;;
62911;SDS011;49111;51.028;4.218;2024-01-25T15:26:32;23.85;;;13.63;;
62911;SDS011;49111;51.028;4.218;2024-01-25T15:34:13;23.70;;;14.52;;
62911;SDS011;49111;51.028;4.218;2024-01-25T15:36:56;24.35;;;12.80;;
62911;SDS011;49111;51.028;4.218;2024-01-25T15:44:48;21.75;;;11.25;;
62911;SDS011;49111;51.028;4.218;2024-01-25T15:47:15;24.20;;;10.75;;
62911;SDS011;49111;51.028;4.218;2024-01-25T15:49:42;18.92;;;11.30;;
62911;SDS011;49111;51.028;4.218;2024-01-25T16:00:25;22.65;;;12.30;;
62911;SDS011;49111;51.028;4.218;2024-01-25T16:05:28;25.17;;;12.73;;
62911;SDS011;49111;51.028;4.218;2024-01-25T16:07:54;26.33;;;12.10;;
62911;SDS011;49111;51.028;4.218;2024-01-25T16:10:29;25.88;;;15.60;;
62911;SDS011;49111;51.028;4.218;2024-01-25T16:15:27;21.60;;;12.33;;
62911;SDS011;49111;51.028;4.218;2024-01-25T16:17:55;26.67;;;12.25;;
62911;SDS011;49111;51.028;4.218;2024-01-25T16:20:23;23.73;;;13.00;;
62911;SDS011;49111;51.028;4.218;2024-01-25T16:22:52;41.13;;;14.63;;
62911;SDS011;49111;51.028;4.218;2024-01-25T16:25:22;25.38;;;11.85;;
62911;SDS011;49111;51.028;4.218;2024-01-25T16:30:41;24.48;;;13.68;;
62911;SDS011;49111;51.028;4.218;2024-01-25T16:33:10;31.05;;;17.77;;
62911;SDS011;49111;51.028;4.218;2024-01-25T16:35:50;29.70;;;13.05;;
62911;SDS011;49111;51.028;4.218;2024-01-25T16:38:26;23.80;;;13.00;;
62911;SDS011;49111;51.028;4.218;2024-01-25T16:40:59;24.23;;;12.20;;
62911;SDS011;49111;51.028;4.218;2024-01-25T16:43:26;24.40;;;14.48;;
62911;SDS011;49111;51.028;4.218;2024-01-25T16:46:02;28.63;;;14.73;;
62911;SDS011;49111;51.028;4.218;2024-01-25T16:51:14;32.22;;;17.45;;
62911;SDS011;49111;51.028;4.218;2024-01-25T16:56:15;27.92;;;13.43;;
62911;SDS011;49111;51.028;4.218;2024-01-25T16:58:55;23.15;;;12.27;;
62911;SDS011;49111;51.028;4.218;2024-01-25T17:01:22;23.50;;;13.10;;
62911;SDS011;49111;51.028;4.218;2024-01-25T17:03:50;18.08;;;11.55;;
62911;SDS011;49111;51.028;4.218;2024-01-25T17:06:20;25.63;;;14.35;;
62911;SDS011;49111;51.028;4.218;2024-01-25T17:08:58;20.02;;;12.07;;
62911;SDS011;49111;51.028;4.218;2024-01-25T17:11:24;20.73;;;11.32;;
62911;SDS011;49111;51.028;4.218;2024-01-25T17:14:02;24.42;;;13.63;;
62911;SDS011;49111;51.028;4.218;2024-01-25T17:16:33;21.38;;;12.65;;
62911;SDS011;49111;51.028;4.218;2024-01-25T17:19:00;24.90;;;13.77;;
62911;SDS011;49111;51.028;4.218;2024-01-25T17:21:40;24.05;;;12.48;;
62911;SDS011;49111;51.028;4.218;2024-01-25T17:24:23;26.55;;;14.13;;
62911;SDS011;49111;51.028;4.218;2024-01-25T17:26:56;27.50;;;14.38;;
62911;SDS011;49111;51.028;4.218;2024-01-25T17:29:22;27.63;;;17.17;;
62911;SDS011;49111;51.028;4.218;2024-01-25T17:32:05;30.95;;;19.30;;
62911;SDS011;49111;51.028;4.218;2024-01-25T17:34:37;27.20;;;14.00;;
62911;SDS011;49111;51.028;4.218;2024-01-25T17:37:15;29.50;;;14.68;;
62911;SDS011;49111;51.028;4.218;2024-01-25T17:39:41;32.05;;;16.42;;
62911;SDS011;49111;51.028;4.218;2024-01-25T17:42:18;29.13;;;18.55;;
62911;SDS011;49111;51.028;4.218;2024-01-25T17:44:47;35.35;;;21.05;;
62911;SDS011;49111;51.028;4.218;2024-01-25T17:52:45;33.40;;;19.90;;
62911;SDS011;49111;51.028;4.218;2024-01-25T17:55:15;24.73;;;13.95;;
62911;SDS011;49111;51.028;4.218;2024-01-25T17:57:54;24.83;;;13.85;;
62911;SDS011;49111;51.028;4.218;2024-01-25T18:00:19;26.42;;;14.88;;
62911;SDS011;49111;51.028;4.218;2024-01-25T18:02:48;26.00;;;14.02;;
62911;SDS011;49111;51.028;4.218;2024-01-25T18:05:14;26.40;;;15.63;;
62911;SDS011;49111;51.028;4.218;2024-01-25T18:10:37;26.00;;;13.45;;
62911;SDS011;49111;51.028;4.218;2024-01-25T18:13:19;30.63;;;17.52;;
62911;SDS011;49111;51.028;4.218;2024-01-25T18:15:45;30.02;;;15.15;;
62911;SDS011;49111;51.028;4.218;2024-01-25T18:18:15;27.65;;;13.52;;
62911;SDS011;49111;51.028;4.218;2024-01-25T18:23:39;24.95;;;13.15;;
62911;SDS011;49111;51.028;4.218;2024-01-25T18:26:05;24.17;;;14.13;;
62911;SDS011;49111;51.028;4.218;2024-01-25T18:34:01;27.38;;;14.38;;
62911;SDS011;49111;51.028;4.218;2024-01-25T18:36:27;29.05;;;15.60;;
62911;SDS011;49111;51.028;4.218;2024-01-25T18:38:55;28.45;;;15.73;;
62911;SDS011;49111;51.028;4.218;2024-01-25T18:44:10;26.67;;;14.52;;
62911;SDS011;49111;51.028;4.218;2024-01-25T18:52:19;18.92;;;11.98;;
62911;SDS011;49111;51.028;4.218;2024-01-25T18:54:55;19.63;;;11.32;;
62911;SDS011;49111;51.028;4.218;2024-01-25T19:00:10;26.05;;;13.27;;
62911;SDS011;49111;51.028;4.218;2024-01-25T19:02:40;21.10;;;12.82;;
62911;SDS011;49111;51.028;4.218;2024-01-25T19:16:25;22.05;;;12.18;;
62911;SDS011;49111;51.028;4.218;2024-01-25T19:28:18;20.80;;;11.35;;
62911;SDS011;49111;51.028;4.218;2024-01-25T19:33:35;19.63;;;10.73;;
62911;SDS011;49111;51.028;4.218;2024-01-25T19:36:14;21.30;;;11.27;;
62911;SDS011;49111;51.028;4.218;2024-01-25T19:38:57;16.42;;;9.77;;
62911;SDS011;49111;51.028;4.218;2024-01-25T19:41:27;14.80;;;9.55;;